Palacios, TX

1:06 PM CDT on August 29, 2014 (GMT -0500)
Palacios Municipal | Change Station
CLOSE
Current Station
Airport
Location: Palacios,
Elevation: 16 ft
Nearby Weather Stations

Elev 16 ft 28.73 °N, 96.25 °W | Updated 13 minutes ago

Partly Cloudy
Partly Cloudy
89 °F
Feels Like 97 °F
N
14
Wind Variable Wind from SE

Today
High -- | Low -- °F
--% Chance of Precip.
Yesterday
High -- | Low -- °F
Precip. -- in
7:01 AM 7:49 PM
Waxing Crescent, 15% visible
Pressure 29.86 in
Visibility 10.0 miles
Clouds Few 2900 ft
Heat Index 97 °F
Dew Point 73 °F
Humidity 59%
Rainfall 0.05 in
Snow Depth Not available.
UV 10 out of 12
Pollen 6.90 out of 12
Air Quality Not available.
Flu Activity Not available.
METAR KPSX 291753Z AUTO 14012KT 10SM FEW029 32/23 A2986 RMK AO2 SLP111 60005 T03170228 10322 20261 50003

More Conditions Fewer Conditions

Pressure 29.86 in
Visibility 10.0 miles
Clouds Few 2900 ft
Heat Index 97 °F
Dew Point 73 °F
Humidity 59%
Rainfall 0.05 in
Snow Depth Not available.
UV 10 out of 12
Pollen 6.90 out of 12
Air Quality Not available.
Flu Activity Not available.
METAR KPSX 291753Z AUTO 14012KT 10SM FEW029 32/23 A2986 RMK AO2 SLP111 60005 T03170228 10322 20261 50003

More Conditions Fewer Conditions

10-Day Weather Forecast

Almanac

Astronomy

Aug. 29, 2014 Rise Set
Actual Time 7:01 AM CDT 7:49 PM CDT
Civil Twilight 6:37 AM CDT 8:13 PM CDT
Nautical Twilight 6:08 AM CDT 8:42 PM CDT
Astronomical Twilight 5:39 AM CDT 9:11 PM CDT
Moon 10:30 AM CDT 10:11 PM CDT
Length of Visible Light 13h 36m
Length of Day
12h 48m
Tomorrow will be 1m 37s shorter.
Waxing Crescent, 15% of the Moon is Illuminated
Today
Waxing Crescent
Sep 2
First Quarter
Sep 8
Full
Sep 15
Last Quarter
Sep 24
New

Today's Extremes

State Highs State Lows

Community

WunderPhotos

Upload Photos

1,748,307 photos uploaded!

Nearby

Snow Depth

Station Depth Elevation
No new snow has been reported.

Earthquake Activity

City Distance Mag. Time & Date
No recent earthquake activity has been reported nearby.
Minimum magnitude displayed is 2.5.

Coastal Water Temperatures

Place Temperature
Seadrift, TX 84.9 °F
Rockport, TX 86.0 °F
USCG Freeport, TX 84.0 °F

Nearby Weather Stations